sensor_id;sensor_type;location;lat;lon;timestamp;noise_LAeq;noise_LA_min;noise_LA_max;noise_LA01;noise_LA95
72686;Laerm;61365;52.162;4.500;2023-01-25T00:00:42;47.22;39.59;57.79;;
72686;Laerm;61365;52.162;4.500;2023-01-25T00:03:09;47.41;39.50;58.26;;
72686;Laerm;61365;52.162;4.500;2023-01-25T00:05:35;47.40;39.16;58.67;;
72686;Laerm;61365;52.162;4.500;2023-01-25T00:08:02;47.52;39.01;58.97;;
72686;Laerm;61365;52.162;4.500;2023-01-25T00:10:28;47.57;39.09;57.99;;
72686;Laerm;61365;52.162;4.500;2023-01-25T00:12:55;47.29;39.91;58.42;;
72686;Laerm;61365;52.162;4.500;2023-01-25T00:15:23;47.21;38.83;61.20;;
72686;Laerm;61365;52.162;4.500;2023-01-25T00:17:49;47.33;40.46;58.50;;
72686;Laerm;61365;52.162;4.500;2023-01-25T00:20:16;47.24;39.61;62.24;;
72686;Laerm;61365;52.162;4.500;2023-01-25T00:22:42;47.42;40.13;59.54;;
72686;Laerm;61365;52.162;4.500;2023-01-25T00:25:09;47.06;36.88;58.19;;
72686;Laerm;61365;52.162;4.500;2023-01-25T00:27:35;46.85;36.37;57.60;;
72686;Laerm;61365;52.162;4.500;2023-01-25T00:30:01;46.80;38.40;57.70;;
72686;Laerm;61365;52.162;4.500;2023-01-25T00:32:40;46.76;37.11;57.74;;
72686;Laerm;61365;52.162;4.500;2023-01-25T00:35:10;46.76;37.37;57.11;;
72686;Laerm;61365;52.162;4.500;2023-01-25T00:37:46;47.09;36.78;62.10;;
72686;Laerm;61365;52.162;4.500;2023-01-25T00:40:15;47.41;39.57;58.67;;
72686;Laerm;61365;52.162;4.500;2023-01-25T00:42:41;47.44;40.50;58.25;;
72686;Laerm;61365;52.162;4.500;2023-01-25T00:45:10;47.49;38.05;58.39;;
72686;Laerm;61365;52.162;4.500;2023-01-25T00:47:37;47.38;40.07;58.45;;
72686;Laerm;61365;52.162;4.500;2023-01-25T00:50:06;47.46;39.85;60.14;;
72686;Laerm;61365;52.162;4.500;2023-01-25T00:52:32;47.51;39.31;59.19;;
72686;Laerm;61365;52.162;4.500;2023-01-25T00:54:59;47.66;39.63;58.11;;
72686;Laerm;61365;52.162;4.500;2023-01-25T00:57:25;47.41;39.11;59.67;;
72686;Laerm;61365;52.162;4.500;2023-01-25T00:59:51;47.31;40.12;58.67;;
72686;Laerm;61365;52.162;4.500;2023-01-25T01:02:18;47.31;40.15;58.54;;
72686;Laerm;61365;52.162;4.500;2023-01-25T01:04:44;47.33;39.88;57.90;;
72686;Laerm;61365;52.162;4.500;2023-01-25T01:07:13;47.32;38.37;58.17;;
72686;Laerm;61365;52.162;4.500;2023-01-25T01:09:40;47.40;40.29;59.97;;
72686;Laerm;61365;52.162;4.500;2023-01-25T01:12:06;47.59;39.00;63.15;;
72686;Laerm;61365;52.162;4.500;2023-01-25T01:14:33;47.44;38.42;59.59;;
72686;Laerm;61365;52.162;4.500;2023-01-25T01:16:59;47.54;39.05;58.51;;
72686;Laerm;61365;52.162;4.500;2023-01-25T01:19:25;47.51;38.97;58.01;;
72686;Laerm;61365;52.162;4.500;2023-01-25T01:21:52;47.46;38.09;58.59;;
72686;Laerm;61365;52.162;4.500;2023-01-25T01:24:18;47.34;40.16;58.68;;
72686;Laerm;61365;52.162;4.500;2023-01-25T01:26:45;47.51;39.84;59.02;;
72686;Laerm;61365;52.162;4.500;2023-01-25T01:29:12;47.52;39.62;60.45;;
72686;Laerm;61365;52.162;4.500;2023-01-25T01:31:38;47.58;40.21;60.26;;
72686;Laerm;61365;52.162;4.500;2023-01-25T01:34:04;47.43;39.37;58.83;;
72686;Laerm;61365;52.162;4.500;2023-01-25T01:36:31;47.33;39.07;57.70;;
72686;Laerm;61365;52.162;4.500;2023-01-25T01:38:58;47.43;38.76;59.26;;
72686;Laerm;61365;52.162;4.500;2023-01-25T01:41:25;47.43;38.35;58.24;;
72686;Laerm;61365;52.162;4.500;2023-01-25T01:43:51;47.44;37.60;58.79;;
72686;Laerm;61365;52.162;4.500;2023-01-25T01:46:26;47.41;38.95;60.25;;
72686;Laerm;61365;52.162;4.500;2023-01-25T01:49:04;47.34;39.71;59.00;;
72686;Laerm;61365;52.162;4.500;2023-01-25T01:51:51;47.38;40.03;57.46;;
72686;Laerm;61365;52.162;4.500;2023-01-25T01:54:33;47.35;40.17;58.55;;
72686;Laerm;61365;52.162;4.500;2023-01-25T01:57:17;47.39;40.69;58.33;;
72686;Laerm;61365;52.162;4.500;2023-01-25T01:59:56;47.33;40.10;62.92;;
72686;Laerm;61365;52.162;4.500;2023-01-25T02:02:25;47.38;40.49;58.49;;
72686;Laerm;61365;52.162;4.500;2023-01-25T02:04:57;47.39;39.76;57.98;;
72686;Laerm;61365;52.162;4.500;2023-01-25T02:07:34;47.06;36.38;62.64;;
72686;Laerm;61365;52.162;4.500;2023-01-25T02:10:04;46.90;36.06;58.48;;
72686;Laerm;61365;52.162;4.500;2023-01-25T02:12:31;47.05;37.12;57.11;;
72686;Laerm;61365;52.162;4.500;2023-01-25T02:14:58;47.35;39.56;57.93;;
72686;Laerm;61365;52.162;4.500;2023-01-25T02:17:32;47.50;39.81;58.49;;
72686;Laerm;61365;52.162;4.500;2023-01-25T02:20:35;47.50;39.55;58.20;;
72686;Laerm;61365;52.162;4.500;2023-01-25T02:23:31;47.40;40.08;63.53;;
72686;Laerm;61365;52.162;4.500;2023-01-25T02:26:04;47.39;38.80;58.48;;
72686;Laerm;61365;52.162;4.500;2023-01-25T02:28:42;47.51;39.19;59.27;;
72686;Laerm;61365;52.162;4.500;2023-01-25T02:31:10;47.32;39.84;58.26;;
72686;Laerm;61365;52.162;4.500;2023-01-25T02:33:37;47.42;39.74;58.70;;
72686;Laerm;61365;52.162;4.500;2023-01-25T02:38:41;47.50;39.94;59.05;;
72686;Laerm;61365;52.162;4.500;2023-01-25T02:43:51;47.41;39.13;58.61;;
72686;Laerm;61365;52.162;4.500;2023-01-25T02:46:32;47.44;39.60;58.27;;
72686;Laerm;61365;52.162;4.500;2023-01-25T02:49:00;47.44;39.96;58.39;;
72686;Laerm;61365;52.162;4.500;2023-01-25T02:51:30;47.33;39.54;58.05;;
72686;Laerm;61365;52.162;4.500;2023-01-25T02:53:57;47.49;39.56;58.47;;
72686;Laerm;61365;52.162;4.500;2023-01-25T02:56:25;47.44;39.77;59.64;;
72686;Laerm;61365;52.162;4.500;2023-01-25T02:58:53;47.45;40.19;58.52;;
72686;Laerm;61365;52.162;4.500;2023-01-25T03:01:19;47.27;39.67;58.59;;
72686;Laerm;61365;52.162;4.500;2023-01-25T03:03:46;47.42;38.08;58.23;;
72686;Laerm;61365;52.162;4.500;2023-01-25T03:06:12;47.38;40.54;58.52;;
72686;Laerm;61365;52.162;4.500;2023-01-25T03:08:39;47.41;38.36;59.08;;
72686;Laerm;61365;52.162;4.500;2023-01-25T03:11:07;47.48;40.37;58.15;;
72686;Laerm;61365;52.162;4.500;2023-01-25T03:13:35;47.52;39.78;59.89;;
72686;Laerm;61365;52.162;4.500;2023-01-25T03:16:08;47.36;39.33;59.21;;
72686;Laerm;61365;52.162;4.500;2023-01-25T03:18:36;47.30;39.21;58.61;;
72686;Laerm;61365;52.162;4.500;2023-01-25T03:21:15;47.23;40.04;58.38;;
72686;Laerm;61365;52.162;4.500;2023-01-25T03:23:44;47.30;40.31;58.00;;
72686;Laerm;61365;52.162;4.500;2023-01-25T03:26:17;47.52;39.30;57.94;;
72686;Laerm;61365;52.162;4.500;2023-01-25T03:28:44;47.51;40.13;58.73;;
72686;Laerm;61365;52.162;4.500;2023-01-25T03:31:16;47.44;39.46;58.27;;
72686;Laerm;61365;52.162;4.500;2023-01-25T03:33:44;47.42;38.44;58.98;;
72686;Laerm;61365;52.162;4.500;2023-01-25T03:36:11;47.50;39.63;57.84;;
72686;Laerm;61365;52.162;4.500;2023-01-25T03:38:37;47.36;39.74;58.33;;
72686;Laerm;61365;52.162;4.500;2023-01-25T03:41:04;47.11;36.64;57.40;;
72686;Laerm;61365;52.162;4.500;2023-01-25T03:43:30;47.00;36.78;57.77;;
72686;Laerm;61365;52.162;4.500;2023-01-25T03:45:59;46.81;37.42;56.68;;
72686;Laerm;61365;52.162;4.500;2023-01-25T03:48:28;46.76;37.49;58.65;;
72686;Laerm;61365;52.162;4.500;2023-01-25T03:50:57;46.79;38.43;58.16;;
72686;Laerm;61365;52.162;4.500;2023-01-25T03:53:27;46.60;36.89;56.65;;
72686;Laerm;61365;52.162;4.500;2023-01-25T03:56:01;46.71;36.33;57.45;;
72686;Laerm;61365;52.162;4.500;2023-01-25T03:58:30;47.28;37.35;59.12;;
72686;Laerm;61365;52.162;4.500;2023-01-25T04:01:00;47.55;40.02;58.52;;
72686;Laerm;61365;52.162;4.500;2023-01-25T04:03:28;47.62;40.08;59.11;;
72686;Laerm;61365;52.162;4.500;2023-01-25T04:05:55;47.58;39.17;59.05;;
72686;Laerm;61365;52.162;4.500;2023-01-25T04:08:23;47.36;37.90;59.31;;
72686;Laerm;61365;52.162;4.500;2023-01-25T04:10:56;47.33;38.53;59.00;;
72686;Laerm;61365;52.162;4.500;2023-01-25T04:13:23;47.43;39.17;59.45;;
72686;Laerm;61365;52.162;4.500;2023-01-25T04:15:50;47.47;40.42;58.23;;
72686;Laerm;61365;52.162;4.500;2023-01-25T04:18:17;47.44;38.84;58.65;;
72686;Laerm;61365;52.162;4.500;2023-01-25T04:20:44;47.42;40.10;58.16;;
72686;Laerm;61365;52.162;4.500;2023-01-25T04:23:11;47.45;39.98;57.82;;
72686;Laerm;61365;52.162;4.500;2023-01-25T04:25:38;47.39;38.79;58.54;;
72686;Laerm;61365;52.162;4.500;2023-01-25T04:28:04;47.26;40.00;58.58;;
72686;Laerm;61365;52.162;4.500;2023-01-25T04:30:31;47.35;39.70;58.10;;
72686;Laerm;61365;52.162;4.500;2023-01-25T04:33:03;47.43;38.38;58.01;;
72686;Laerm;61365;52.162;4.500;2023-01-25T04:35:30;47.24;39.10;59.50;;
72686;Laerm;61365;52.162;4.500;2023-01-25T04:37:58;47.21;38.98;57.68;;
72686;Laerm;61365;52.162;4.500;2023-01-25T04:40:25;47.37;39.00;58.22;;
72686;Laerm;61365;52.162;4.500;2023-01-25T04:42:52;47.33;39.68;60.43;;
72686;Laerm;61365;52.162;4.500;2023-01-25T04:45:18;47.28;39.32;58.64;;
72686;Laerm;61365;52.162;4.500;2023-01-25T04:47:44;47.30;39.33;61.44;;
72686;Laerm;61365;52.162;4.500;2023-01-25T04:50:11;47.38;39.55;58.59;;
72686;Laerm;61365;52.162;4.500;2023-01-25T04:52:37;47.26;36.93;63.62;;
72686;Laerm;61365;52.162;4.500;2023-01-25T04:55:04;47.22;39.29;58.50;;
72686;Laerm;61365;52.162;4.500;2023-01-25T04:57:30;47.42;38.48;58.29;;
72686;Laerm;61365;52.162;4.500;2023-01-25T04:59:56;47.52;38.95;59.08;;
72686;Laerm;61365;52.162;4.500;2023-01-25T05:02:23;47.65;39.99;59.50;;
72686;Laerm;61365;52.162;4.500;2023-01-25T05:04:49;47.27;40.20;58.72;;
72686;Laerm;61365;52.162;4.500;2023-01-25T05:07:15;47.23;38.79;58.07;;
72686;Laerm;61365;52.162;4.500;2023-01-25T05:09:42;47.45;39.70;59.48;;
72686;Laerm;61365;52.162;4.500;2023-01-25T05:12:08;47.38;39.52;58.65;;
72686;Laerm;61365;52.162;4.500;2023-01-25T05:14:39;47.27;39.88;59.34;;
72686;Laerm;61365;52.162;4.500;2023-01-25T05:17:06;47.14;40.21;58.01;;
72686;Laerm;61365;52.162;4.500;2023-01-25T05:19:33;47.36;40.35;58.04;;
72686;Laerm;61365;52.162;4.500;2023-01-25T05:22:00;47.42;38.83;58.21;;
72686;Laerm;61365;52.162;4.500;2023-01-25T05:24:30;47.33;39.55;57.91;;
72686;Laerm;61365;52.162;4.500;2023-01-25T05:26:57;47.43;40.67;58.10;;
72686;Laerm;61365;52.162;4.500;2023-01-25T05:29:34;47.60;38.44;63.54;;
72686;Laerm;61365;52.162;4.500;2023-01-25T05:32:05;47.31;38.39;58.04;;
72686;Laerm;61365;52.162;4.500;2023-01-25T05:34:33;47.25;39.92;58.07;;
72686;Laerm;61365;52.162;4.500;2023-01-25T05:37:01;47.21;39.10;58.65;;
72686;Laerm;61365;52.162;4.500;2023-01-25T05:39:28;47.30;37.66;57.57;;
72686;Laerm;61365;52.162;4.500;2023-01-25T05:41:54;47.33;40.34;58.17;;
72686;Laerm;61365;52.162;4.500;2023-01-25T05:44:21;47.44;39.00;60.05;;
72686;Laerm;61365;52.162;4.500;2023-01-25T05:46:47;47.43;38.73;59.99;;
72686;Laerm;61365;52.162;4.500;2023-01-25T05:49:15;47.20;38.42;58.35;;
72686;Laerm;61365;52.162;4.500;2023-01-25T05:51:42;47.50;38.92;61.31;;
72686;Laerm;61365;52.162;4.500;2023-01-25T05:54:13;47.48;38.14;63.32;;
72686;Laerm;61365;52.162;4.500;2023-01-25T05:56:39;47.41;39.21;58.59;;
72686;Laerm;61365;52.162;4.500;2023-01-25T05:59:06;47.32;37.85;58.37;;
72686;Laerm;61365;52.162;4.500;2023-01-25T06:01:32;47.14;40.15;57.33;;
72686;Laerm;61365;52.162;4.500;2023-01-25T06:03:59;47.51;39.37;58.63;;
72686;Laerm;61365;52.162;4.500;2023-01-25T06:06:25;47.35;39.89;59.15;;
72686;Laerm;61365;52.162;4.500;2023-01-25T06:08:51;47.54;39.83;59.09;;
72686;Laerm;61365;52.162;4.500;2023-01-25T06:11:22;47.38;39.65;62.87;;
72686;Laerm;61365;52.162;4.500;2023-01-25T06:13:49;47.41;39.06;58.09;;
72686;Laerm;61365;52.162;4.500;2023-01-25T06:16:17;47.47;39.66;58.44;;
72686;Laerm;61365;52.162;4.500;2023-01-25T06:18:44;47.40;39.52;58.54;;
72686;Laerm;61365;52.162;4.500;2023-01-25T06:21:10;47.50;38.20;57.88;;
72686;Laerm;61365;52.162;4.500;2023-01-25T06:23:37;47.37;36.14;58.11;;
72686;Laerm;61365;52.162;4.500;2023-01-25T06:26:10;46.91;36.54;58.03;;
72686;Laerm;61365;52.162;4.500;2023-01-25T06:28:38;46.72;37.40;56.96;;
72686;Laerm;61365;52.162;4.500;2023-01-25T06:31:15;46.75;36.29;58.22;;
72686;Laerm;61365;52.162;4.500;2023-01-25T06:33:47;46.59;37.81;58.22;;
72686;Laerm;61365;52.162;4.500;2023-01-25T06:36:17;46.76;37.77;57.41;;
72686;Laerm;61365;52.162;4.500;2023-01-25T06:38:51;46.64;37.60;57.12;;
72686;Laerm;61365;52.162;4.500;2023-01-25T06:41:19;46.52;37.53;58.24;;
72686;Laerm;61365;52.162;4.500;2023-01-25T06:43:47;46.49;37.83;58.33;;
72686;Laerm;61365;52.162;4.500;2023-01-25T06:46:14;46.75;37.89;58.85;;
72686;Laerm;61365;52.162;4.500;2023-01-25T06:48:41;46.78;38.28;61.64;;
72686;Laerm;61365;52.162;4.500;2023-01-25T06:51:11;46.74;38.13;58.03;;
72686;Laerm;61365;52.162;4.500;2023-01-25T06:53:41;46.83;37.54;58.60;;
72686;Laerm;61365;52.162;4.500;2023-01-25T06:56:17;46.75;38.23;58.49;;
72686;Laerm;61365;52.162;4.500;2023-01-25T06:58:45;46.75;38.27;59.60;;
72686;Laerm;61365;52.162;4.500;2023-01-25T07:01:15;46.65;37.28;57.62;;
72686;Laerm;61365;52.162;4.500;2023-01-25T07:03:48;46.66;37.86;57.06;;
72686;Laerm;61365;52.162;4.500;2023-01-25T07:06:18;46.54;35.87;56.70;;
72686;Laerm;61365;52.162;4.500;2023-01-25T07:08:44;46.83;36.16;57.72;;
72686;Laerm;61365;52.162;4.500;2023-01-25T07:11:12;46.78;36.15;56.58;;
72686;Laerm;61365;52.162;4.500;2023-01-25T07:13:41;46.73;36.09;56.58;;
72686;Laerm;61365;52.162;4.500;2023-01-25T07:16:14;46.84;37.60;61.61;;
72686;Laerm;61365;52.162;4.500;2023-01-25T07:18:41;46.88;36.71;57.87;;
72686;Laerm;61365;52.162;4.500;2023-01-25T07:21:19;46.63;37.55;56.83;;
72686;Laerm;61365;52.162;4.500;2023-01-25T07:23:50;46.48;36.13;57.61;;
72686;Laerm;61365;52.162;4.500;2023-01-25T07:26:25;46.79;37.63;61.30;;
72686;Laerm;61365;52.162;4.500;2023-01-25T07:28:52;46.71;37.81;57.68;;
72686;Laerm;61365;52.162;4.500;2023-01-25T07:31:20;46.73;37.86;60.04;;
72686;Laerm;61365;52.162;4.500;2023-01-25T07:33:52;46.58;38.00;58.47;;
72686;Laerm;61365;52.162;4.500;2023-01-25T07:36:19;46.66;38.09;57.70;;
72686;Laerm;61365;52.162;4.500;2023-01-25T07:38:46;46.43;37.08;59.58;;
72686;Laerm;61365;52.162;4.500;2023-01-25T07:41:13;46.60;37.93;58.24;;
72686;Laerm;61365;52.162;4.500;2023-01-25T07:43:41;46.86;35.74;58.75;;
72686;Laerm;61365;52.162;4.500;2023-01-25T07:46:11;46.93;36.50;58.39;;
72686;Laerm;61365;52.162;4.500;2023-01-25T07:48:40;47.58;38.93;59.20;;
72686;Laerm;61365;52.162;4.500;2023-01-25T07:51:10;46.89;37.21;60.76;;
72686;Laerm;61365;52.162;4.500;2023-01-25T07:53:41;46.95;36.52;58.26;;
72686;Laerm;61365;52.162;4.500;2023-01-25T07:56:11;46.86;36.82;57.00;;
72686;Laerm;61365;52.162;4.500;2023-01-25T07:58:38;46.86;36.26;58.13;;
72686;Laerm;61365;52.162;4.500;2023-01-25T08:01:14;46.94;36.42;57.62;;
72686;Laerm;61365;52.162;4.500;2023-01-25T08:03:41;46.90;36.74;57.71;;
72686;Laerm;61365;52.162;4.500;2023-01-25T08:06:09;46.76;37.89;59.35;;
72686;Laerm;61365;52.162;4.500;2023-01-25T08:08:41;46.80;37.29;57.84;;
72686;Laerm;61365;52.162;4.500;2023-01-25T08:11:14;46.65;37.74;58.14;;
72686;Laerm;61365;52.162;4.500;2023-01-25T08:13:41;46.67;37.65;57.66;;
72686;Laerm;61365;52.162;4.500;2023-01-25T08:16:13;46.82;36.39;61.81;;
72686;Laerm;61365;52.162;4.500;2023-01-25T08:18:39;46.74;36.89;56.79;;
72686;Laerm;61365;52.162;4.500;2023-01-25T08:21:06;46.78;36.62;57.65;;
72686;Laerm;61365;52.162;4.500;2023-01-25T08:23:32;46.87;36.73;59.75;;
72686;Laerm;61365;52.162;4.500;2023-01-25T08:26:07;46.94;35.90;60.46;;
72686;Laerm;61365;52.162;4.500;2023-01-25T08:28:34;47.03;36.38;57.67;;
72686;Laerm;61365;52.162;4.500;2023-01-25T08:31:18;47.25;37.35;59.54;;
72686;Laerm;61365;52.162;4.500;2023-01-25T08:33:46;47.48;40.14;58.17;;
72686;Laerm;61365;52.162;4.500;2023-01-25T08:36:14;47.41;36.76;60.11;;
72686;Laerm;61365;52.162;4.500;2023-01-25T08:38:47;47.10;36.72;58.90;;
72686;Laerm;61365;52.162;4.500;2023-01-25T08:41:17;47.01;36.03;57.54;;
72686;Laerm;61365;52.162;4.500;2023-01-25T08:43:45;46.90;36.21;57.18;;
72686;Laerm;61365;52.162;4.500;2023-01-25T08:46:15;46.98;36.40;57.57;;
72686;Laerm;61365;52.162;4.500;2023-01-25T08:48:42;47.06;37.10;58.70;;
72686;Laerm;61365;52.162;4.500;2023-01-25T08:51:11;47.40;38.90;58.54;;
72686;Laerm;61365;52.162;4.500;2023-01-25T08:53:39;47.43;39.80;59.68;;
72686;Laerm;61365;52.162;4.500;2023-01-25T08:56:09;47.33;40.37;57.56;;
72686;Laerm;61365;52.162;4.500;2023-01-25T08:58:39;47.39;38.58;58.34;;
72686;Laerm;61365;52.162;4.500;2023-01-25T09:01:08;47.53;39.11;59.48;;
72686;Laerm;61365;52.162;4.500;2023-01-25T09:03:38;47.42;39.00;58.77;;
72686;Laerm;61365;52.162;4.500;2023-01-25T09:06:07;47.29;40.39;61.65;;
72686;Laerm;61365;52.162;4.500;2023-01-25T09:08:34;47.17;40.02;58.99;;
72686;Laerm;61365;52.162;4.500;2023-01-25T09:11:10;47.39;38.86;58.72;;
72686;Laerm;61365;52.162;4.500;2023-01-25T09:13:37;47.32;39.91;58.84;;
72686;Laerm;61365;52.162;4.500;2023-01-25T09:16:12;47.25;39.33;58.30;;
72686;Laerm;61365;52.162;4.500;2023-01-25T09:18:41;47.10;35.65;58.51;;
72686;Laerm;61365;52.162;4.500;2023-01-25T09:21:12;47.19;40.39;57.68;;
72686;Laerm;61365;52.162;4.500;2023-01-25T09:23:39;47.35;39.38;58.76;;
72686;Laerm;61365;52.162;4.500;2023-01-25T09:26:06;47.35;39.57;58.79;;
72686;Laerm;61365;52.162;4.500;2023-01-25T09:28:33;47.39;38.96;58.00;;
72686;Laerm;61365;52.162;4.500;2023-01-25T09:31:03;47.34;38.53;58.42;;
72686;Laerm;61365;52.162;4.500;2023-01-25T09:33:35;47.51;39.53;59.33;;
72686;Laerm;61365;52.162;4.500;2023-01-25T09:36:02;46.98;35.08;57.80;;
72686;Laerm;61365;52.162;4.500;2023-01-25T09:38:29;46.95;36.85;57.54;;
72686;Laerm;61365;52.162;4.500;2023-01-25T09:41:05;46.89;36.88;57.63;;
72686;Laerm;61365;52.162;4.500;2023-01-25T09:46:43;47.38;37.77;63.73;;
72686;Laerm;61365;52.162;4.500;2023-01-25T09:55:27;47.42;37.64;58.34;;
72686;Laerm;61365;52.162;4.500;2023-01-25T09:57:56;47.35;39.73;57.98;;
72686;Laerm;61365;52.162;4.500;2023-01-25T10:00:33;47.51;39.74;59.52;;
72686;Laerm;61365;52.162;4.500;2023-01-25T10:03:27;47.34;38.07;59.03;;
72686;Laerm;61365;52.162;4.500;2023-01-25T10:06:00;47.36;40.08;58.47;;
72686;Laerm;61365;52.162;4.500;2023-01-25T10:11:41;47.23;39.64;58.51;;
72686;Laerm;61365;52.162;4.500;2023-01-25T10:14:15;47.29;38.03;58.49;;
72686;Laerm;61365;52.162;4.500;2023-01-25T10:19:42;47.38;37.57;58.67;;
72686;Laerm;61365;52.162;4.500;2023-01-25T10:22:22;47.45;38.16;57.99;;
72686;Laerm;61365;52.162;4.500;2023-01-25T10:25:23;47.41;39.01;58.71;;
72686;Laerm;61365;52.162;4.500;2023-01-25T10:30:29;47.45;39.83;59.12;;
72686;Laerm;61365;52.162;4.500;2023-01-25T10:33:18;47.52;38.85;58.04;;
72686;Laerm;61365;52.162;4.500;2023-01-25T10:35:48;47.50;40.15;60.31;;
72686;Laerm;61365;52.162;4.500;2023-01-25T10:38:39;47.53;40.15;57.92;;
72686;Laerm;61365;52.162;4.500;2023-01-25T10:41:49;47.42;37.84;58.49;;
72686;Laerm;61365;52.162;4.500;2023-01-25T10:44:16;47.41;40.39;58.71;;
72686;Laerm;61365;52.162;4.500;2023-01-25T10:47:33;47.40;39.12;58.00;;
72686;Laerm;61365;52.162;4.500;2023-01-25T10:49:58;47.35;39.16;58.29;;
72686;Laerm;61365;52.162;4.500;2023-01-25T10:52:29;47.49;38.79;58.58;;
72686;Laerm;61365;52.162;4.500;2023-01-25T10:55:16;47.44;39.38;57.91;;
72686;Laerm;61365;52.162;4.500;2023-01-25T10:57:50;47.35;37.28;59.49;;
72686;Laerm;61365;52.162;4.500;2023-01-25T11:02:47;47.22;40.16;59.06;;
72686;Laerm;61365;52.162;4.500;2023-01-25T11:05:35;47.43;38.97;61.12;;
72686;Laerm;61365;52.162;4.500;2023-01-25T11:08:26;47.42;39.41;58.18;;
72686;Laerm;61365;52.162;4.500;2023-01-25T11:10:58;47.34;38.81;58.37;;
72686;Laerm;61365;52.162;4.500;2023-01-25T11:13:28;47.36;40.30;59.59;;
72686;Laerm;61365;52.162;4.500;2023-01-25T11:16:26;47.20;39.38;58.61;;
72686;Laerm;61365;52.162;4.500;2023-01-25T11:18:56;47.34;37.14;62.58;;
72686;Laerm;61365;52.162;4.500;2023-01-25T11:21:53;46.63;36.77;57.95;;
72686;Laerm;61365;52.162;4.500;2023-01-25T11:24:28;46.84;36.55;57.42;;
72686;Laerm;61365;52.162;4.500;2023-01-25T11:27:22;46.82;35.85;57.28;;
72686;Laerm;61365;52.162;4.500;2023-01-25T11:30:05;46.80;36.23;57.84;;
72686;Laerm;61365;52.162;4.500;2023-01-25T11:32:32;46.89;36.99;59.51;;
72686;Laerm;61365;52.162;4.500;2023-01-25T11:34:59;46.97;36.29;57.58;;
72686;Laerm;61365;52.162;4.500;2023-01-25T11:40:48;46.76;35.50;57.47;;
72686;Laerm;61365;52.162;4.500;2023-01-25T11:43:24;47.05;36.00;63.00;;
72686;Laerm;61365;52.162;4.500;2023-01-25T11:46:33;47.00;36.73;58.13;;
72686;Laerm;61365;52.162;4.500;2023-01-25T11:49:39;46.97;36.23;60.24;;
72686;Laerm;61365;52.162;4.500;2023-01-25T12:06:56;47.40;40.25;58.83;;
72686;Laerm;61365;52.162;4.500;2023-01-25T12:27:46;46.95;36.05;57.62;;
72686;Laerm;61365;52.162;4.500;2023-01-25T12:30:48;46.82;36.34;57.21;;
72686;Laerm;61365;52.162;4.500;2023-01-25T12:33:32;46.95;36.51;58.70;;
72686;Laerm;61365;52.162;4.500;2023-01-25T12:36:10;46.80;36.67;57.14;;
72686;Laerm;61365;52.162;4.500;2023-01-25T12:38:55;46.81;36.66;58.16;;
72686;Laerm;61365;52.162;4.500;2023-01-25T12:41:43;46.78;36.90;58.38;;
72686;Laerm;61365;52.162;4.500;2023-01-25T12:44:24;46.61;37.33;57.89;;
72686;Laerm;61365;52.162;4.500;2023-01-25T12:47:04;46.55;38.00;58.49;;
72686;Laerm;61365;52.162;4.500;2023-01-25T12:52:18;46.90;35.98;58.92;;
72686;Laerm;61365;52.162;4.500;2023-01-25T12:54:46;46.87;36.88;60.64;;
72686;Laerm;61365;52.162;4.500;2023-01-25T13:11:47;46.96;36.05;58.21;;
72686;Laerm;61365;52.162;4.500;2023-01-25T13:16:48;46.83;36.78;62.46;;
72686;Laerm;61365;52.162;4.500;2023-01-25T13:21:59;46.81;36.01;57.56;;
72686;Laerm;61365;52.162;4.500;2023-01-25T13:24:27;46.76;36.48;57.62;;
72686;Laerm;61365;52.162;4.500;2023-01-25T13:32:10;47.46;40.02;58.87;;
72686;Laerm;61365;52.162;4.500;2023-01-25T13:37:23;47.44;39.04;58.99;;
72686;Laerm;61365;52.162;4.500;2023-01-25T13:39:53;47.12;37.91;58.56;;
72686;Laerm;61365;52.162;4.500;2023-01-25T13:47:33;46.66;36.18;57.15;;
72686;Laerm;61365;52.162;4.500;2023-01-25T13:50:24;46.95;36.58;58.46;;
72686;Laerm;61365;52.162;4.500;2023-01-25T13:53:01;46.82;36.65;58.41;;
72686;Laerm;61365;52.162;4.500;2023-01-25T13:55:38;46.92;36.50;56.93;;
72686;Laerm;61365;52.162;4.500;2023-01-25T13:58:21;46.81;36.52;57.23;;
72686;Laerm;61365;52.162;4.500;2023-01-25T14:00:55;47.04;37.16;58.89;;
72686;Laerm;61365;52.162;4.500;2023-01-25T14:03:32;47.27;40.09;57.76;;
72686;Laerm;61365;52.162;4.500;2023-01-25T14:06:01;47.31;38.67;57.16;;
72686;Laerm;61365;52.162;4.500;2023-01-25T14:08:29;47.31;37.13;58.79;;
72686;Laerm;61365;52.162;4.500;2023-01-25T14:10:57;47.30;37.26;58.73;;
72686;Laerm;61365;52.162;4.500;2023-01-25T14:13:24;46.87;36.33;57.91;;
72686;Laerm;61365;52.162;4.500;2023-01-25T14:16:00;46.92;36.63;57.65;;
72686;Laerm;61365;52.162;4.500;2023-01-25T14:18:34;46.76;36.78;57.84;;
72686;Laerm;61365;52.162;4.500;2023-01-25T14:21:16;46.78;36.43;57.27;;
72686;Laerm;61365;52.162;4.500;2023-01-25T14:23:43;46.80;36.94;57.22;;
72686;Laerm;61365;52.162;4.500;2023-01-25T14:26:25;46.87;36.41;58.00;;
72686;Laerm;61365;52.162;4.500;2023-01-25T14:28:57;46.79;35.94;56.55;;
72686;Laerm;61365;52.162;4.500;2023-01-25T14:31:28;47.06;36.29;58.04;;
72686;Laerm;61365;52.162;4.500;2023-01-25T14:33:57;47.07;35.15;62.23;;
72686;Laerm;61365;52.162;4.500;2023-01-25T14:36:28;47.55;39.12;58.72;;
72686;Laerm;61365;52.162;4.500;2023-01-25T14:38:56;47.39;39.12;59.85;;
72686;Laerm;61365;52.162;4.500;2023-01-25T14:41:35;47.43;39.78;58.52;;
72686;Laerm;61365;52.162;4.500;2023-01-25T14:44:11;47.51;40.28;58.10;;
72686;Laerm;61365;52.162;4.500;2023-01-25T14:46:39;47.46;39.96;58.00;;
72686;Laerm;61365;52.162;4.500;2023-01-25T14:52:12;47.40;39.59;57.99;;
72686;Laerm;61365;52.162;4.500;2023-01-25T14:54:50;47.50;39.26;60.73;;
72686;Laerm;61365;52.162;4.500;2023-01-25T14:57:38;47.37;39.70;59.06;;
72686;Laerm;61365;52.162;4.500;2023-01-25T15:02:57;46.99;35.85;58.38;;
72686;Laerm;61365;52.162;4.500;2023-01-25T15:05:35;46.74;37.88;58.46;;
72686;Laerm;61365;52.162;4.500;2023-01-25T15:10:36;46.72;37.54;58.77;;
72686;Laerm;61365;52.162;4.500;2023-01-25T15:13:21;46.79;35.93;58.98;;
72686;Laerm;61365;52.162;4.500;2023-01-25T15:16:00;46.74;37.67;56.88;;
72686;Laerm;61365;52.162;4.500;2023-01-25T15:18:54;46.83;38.29;57.61;;
72686;Laerm;61365;52.162;4.500;2023-01-25T15:21:30;46.99;37.68;60.99;;
72686;Laerm;61365;52.162;4.500;2023-01-25T15:24:00;47.05;37.63;59.84;;
72686;Laerm;61365;52.162;4.500;2023-01-25T15:26:32;46.89;37.35;57.95;;
72686;Laerm;61365;52.162;4.500;2023-01-25T15:29:07;46.91;36.58;57.33;;
72686;Laerm;61365;52.162;4.500;2023-01-25T15:31:38;46.97;36.60;57.76;;
72686;Laerm;61365;52.162;4.500;2023-01-25T15:34:05;46.91;37.18;57.59;;
72686;Laerm;61365;52.162;4.500;2023-01-25T15:36:35;47.07;35.88;58.20;;
72686;Laerm;61365;52.162;4.500;2023-01-25T15:39:02;46.99;35.81;58.43;;
72686;Laerm;61365;52.162;4.500;2023-01-25T15:41:28;47.45;39.62;58.58;;
72686;Laerm;61365;52.162;4.500;2023-01-25T15:43:55;47.49;38.80;58.09;;
72686;Laerm;61365;52.162;4.500;2023-01-25T15:46:25;47.30;38.99;58.00;;
72686;Laerm;61365;52.162;4.500;2023-01-25T15:48:52;47.48;38.75;59.24;;
72686;Laerm;61365;52.162;4.500;2023-01-25T15:51:19;47.20;39.77;57.50;;
72686;Laerm;61365;52.162;4.500;2023-01-25T15:53:46;47.15;37.10;58.01;;